Souda — SVBH5 — position and weather

sailwx.info

Track history (hours):
 
Tides and Currents Weather Stations Pressure Air Temp Water Temp Dewpoint Dewpoint Depression Visibility Wind Speed Wind Dir Waves Ship Positions

Souda

Last reported at 2016-Dec-03 22:30 UTC. Time now 2016-Dec-04 01:58 UTC.
Position N 37°55' E 023°05'.

Length 88 m; draft 4.8 m.

Type: Tanker. MMSI: 241109000.

Date/timePositionNaut miles runAvg speedWind from/ knotsBaromVisibWave heightAir tempDewpointWater temp
2016-Dec-03 22:30N 37°55' E 023°05'1 0.5
2016-Dec-03 21:26N 37°55' E 023°06'0 0.0
2016-Dec-03 20:32N 37°55' E 023°06'0 0.0
2016-Dec-03 19:32N 37°55' E 023°06'0 0.0
2016-Dec-03 18:15N 37°55' E 023°06'0 0.0
2016-Dec-03 17:26N 37°55' E 023°06'0 0.0
2016-Dec-03 16:29N 37°55' E 023°06'0 0.0
2016-Dec-03 15:28N 37°55' E 023°06'0 0.0
2016-Dec-03 14:32N 37°55' E 023°06'0 0.0
2016-Dec-03 13:16N 37°55' E 023°06'0 0.0
2016-Dec-03 11:26N 37°55' E 023°06'0 0.0
2016-Dec-03 09:27N 37°55' E 023°06'0 0.0
2016-Dec-03 07:23N 37°55' E 023°06'0 0.0
2016-Dec-03 06:09N 37°55' E 023°06'0 0.1
2016-Dec-03 05:29N 37°55' E 023°06'0 0.0
2016-Dec-03 04:29N 37°55' E 023°06'0 0.0
2016-Dec-03 03:33N 37°55' E 023°06'0 0.0
2016-Dec-03 02:32N 37°55' E 023°06'0 0.0
2016-Dec-03 01:32N 37°55' E 023°06'0 0.0
2016-Dec-03 00:31N 37°55' E 023°06'0 0.0
2016-Dec-02 23:28N 37°55' E 023°06'0 0.0
2016-Dec-02 22:25N 37°55' E 023°06'0 0.0
2016-Dec-02 21:31N 37°55' E 023°06'0 0.0
2016-Dec-02 20:30N 37°55' E 023°06'0 0.0
2016-Dec-02 19:14N 37°55' E 023°06'0 0.0
2016-Dec-02 18:26N 37°55' E 023°06'0 0.0
2016-Dec-02 17:28N 37°55' E 023°06'0 0.0
2016-Dec-02 16:33N 37°55' E 023°06'0 0.0
2016-Dec-02 15:26N 37°55' E 023°06'0 0.0
2016-Dec-02 14:33N 37°55' E 023°06'0 0.0
2016-Dec-02 13:33N 37°55' E 023°06'0 0.0
2016-Dec-02 12:33N 37°55' E 023°06'0 0.0
2016-Dec-02 11:31N 37°55' E 023°06'1 0.2
2016-Dec-02 07:33N 37°54' E 023°07'8 8.2
2016-Dec-02 06:33N 37°52' E 023°17'8 8.3
2016-Dec-02 05:33N 37°50' E 023°27'9 9.3
2016-Dec-02 04:33N 37°48' E 023°39'9 9.4
2016-Dec-02 03:33N 37°40' E 023°45'8 8.4
2016-Dec-02 02:33N 37°37' E 023°55'9 8.5
2016-Dec-02 01:33N 37°37' E 024°06'9 9.3
2016-Dec-02 00:33N 37°42' E 024°15'10 9.9
2016-Dec-01 23:33N 37°49' E 024°25'10 9.6
2016-Dec-01 22:33N 37°55' E 024°34'  
2016-Nov-28 10:31N 40°19' E 022°48'11 9.5
2016-Nov-28 09:22N 40°30' E 022°46'8 9.9
2016-Nov-28 08:33N 40°35' E 022°54'3 2.7
2016-Nov-28 07:31N 40°38' E 022°53'0 0.0
2016-Nov-28 06:34N 40°38' E 022°53'0 0.0
2016-Nov-28 05:31N 40°38' E 022°53'0 0.0
2016-Nov-28 04:34N 40°38' E 022°53'0 0.0
2016-Nov-28 03:33N 40°38' E 022°53'0 0.0
2016-Nov-28 02:30N 40°38' E 022°53'0 0.0
2016-Nov-28 01:33N 40°38' E 022°53'0 0.0
2016-Nov-28 00:25N 40°38' E 022°53'0 0.0
2016-Nov-27 23:25N 40°38' E 022°53'0 0.0
2016-Nov-27 22:25N 40°38' E 022°53'0 0.0
2016-Nov-27 21:27N 40°38' E 022°53'0 0.0
2016-Nov-27 20:28N 40°38' E 022°53'0 0.0
2016-Nov-27 19:31N 40°38' E 022°53'0 0.0
2016-Nov-27 18:30N 40°38' E 022°53'0 0.0
2016-Nov-27 17:31N 40°38' E 022°53'0 0.0
2016-Nov-27 16:34N 40°38' E 022°53'0 0.0
2016-Nov-27 15:33N 40°38' E 022°53'0 0.0
2016-Nov-27 14:33N 40°38' E 022°53'0 0.0
2016-Nov-27 13:33N 40°38' E 022°53'0 0.0
2016-Nov-27 12:33N 40°38' E 022°53'0 0.0
2016-Nov-27 11:33N 40°38' E 022°53'0 0.0
2016-Nov-27 10:33N 40°38' E 022°53'3 2.3
2016-Nov-27 09:25N 40°36' E 022°56'0 0.0
2016-Nov-27 08:28N 40°36' E 022°56'0 0.0
2016-Nov-27 07:31N 40°36' E 022°56'0 0.0
2016-Nov-27 06:31N 40°36' E 022°56'0 0.0
2016-Nov-27 05:31N 40°36' E 022°56'0 0.0
2016-Nov-27 04:31N 40°36' E 022°56'0 0.0
2016-Nov-27 03:33N 40°36' E 022°56'6 6.3
2016-Nov-27 02:33N 40°32' E 022°50'174 7.8
2016-Nov-26 04:15N 37°59' E 024°36'7 8.2
2016-Nov-26 03:26N 37°53' E 024°31'7 8.4
2016-Nov-26 02:33N 37°48' E 024°24'8 8.4
2016-Nov-26 01:33N 37°43' E 024°16'9 8.5
2016-Nov-26 00:31N 37°37' E 024°08'12 8.6
2016-Nov-25 23:08N 37°38' E 023°53'7 8.7
2016-Nov-25 22:17N 37°39' E 023°44'6 8.1
2016-Nov-25 21:33N 37°44' E 023°40'8 7.7
2016-Nov-25 20:33N 37°49' E 023°33'9 8.6
2016-Nov-25 19:33N 37°51' E 023°22'8 8.4
2016-Nov-25 18:33N 37°53' E 023°11'5 0.2
2016-Nov-24 10:07N 37°55' E 023°05'1 1.6
2016-Nov-24 09:33N 37°54' E 023°06'0 0.2
2016-Nov-24 08:27N 37°55' E 023°06'0 0.0
2016-Nov-24 07:24N 37°54' E 023°06'0 0.0
2016-Nov-24 06:15N 37°54' E 023°06'0 0.0
2016-Nov-24 05:30N 37°54' E 023°06'0 0.0
2016-Nov-24 04:33N 37°54' E 023°06'0 0.0
2016-Nov-24 03:20N 37°54' E 023°06'0 0.0
2016-Nov-24 02:33N 37°54' E 023°06'0 0.0
2016-Nov-24 01:33N 37°54' E 023°06'0 0.0
2016-Nov-24 00:31N 37°55' E 023°06'0 0.0
2016-Nov-23 23:33N 37°54' E 023°06'0 0.0
2016-Nov-23 22:33N 37°54' E 023°06'  
Track history (hours):
 
Tides and Currents Weather Stations Pressure Air Temp Water Temp Dewpoint Dewpoint Depression Visibility Wind Speed Wind Dir Waves Ship Positions

Souda

Last reported at 2016-Dec-03 22:30 UTC. Time now 2016-Dec-04 01:58 UTC.
Position N 37°55' E 023°05'.

Length 88 m; draft 4.8 m.

Type: Tanker. MMSI: 241109000.

Date/timePositionNaut miles runAvg speedWind from/ knotsBaromVisibWave heightAir tempDewpointWater temp
2016-Dec-03 22:30N 37°55' E 023°05'1 0.5
2016-Dec-03 21:26N 37°55' E 023°06'0 0.0
2016-Dec-03 20:32N 37°55' E 023°06'0 0.0
2016-Dec-03 19:32N 37°55' E 023°06'0 0.0
2016-Dec-03 18:15N 37°55' E 023°06'0 0.0
2016-Dec-03 17:26N 37°55' E 023°06'0 0.0
2016-Dec-03 16:29N 37°55' E 023°06'0 0.0
2016-Dec-03 15:28N 37°55' E 023°06'0 0.0
2016-Dec-03 14:32N 37°55' E 023°06'0 0.0
2016-Dec-03 13:16N 37°55' E 023°06'0 0.0
2016-Dec-03 11:26N 37°55' E 023°06'0 0.0
2016-Dec-03 09:27N 37°55' E 023°06'0 0.0
2016-Dec-03 07:23N 37°55' E 023°06'0 0.0
2016-Dec-03 06:09N 37°55' E 023°06'0 0.1
2016-Dec-03 05:29N 37°55' E 023°06'0 0.0
2016-Dec-03 04:29N 37°55' E 023°06'0 0.0
2016-Dec-03 03:33N 37°55' E 023°06'0 0.0
2016-Dec-03 02:32N 37°55' E 023°06'0 0.0
2016-Dec-03 01:32N 37°55' E 023°06'0 0.0
2016-Dec-03 00:31N 37°55' E 023°06'0 0.0
2016-Dec-02 23:28N 37°55' E 023°06'0 0.0
2016-Dec-02 22:25N 37°55' E 023°06'0 0.0
2016-Dec-02 21:31N 37°55' E 023°06'0 0.0
2016-Dec-02 20:30N 37°55' E 023°06'0 0.0
2016-Dec-02 19:14N 37°55' E 023°06'0 0.0
2016-Dec-02 18:26N 37°55' E 023°06'0 0.0
2016-Dec-02 17:28N 37°55' E 023°06'0 0.0
2016-Dec-02 16:33N 37°55' E 023°06'0 0.0
2016-Dec-02 15:26N 37°55' E 023°06'0 0.0
2016-Dec-02 14:33N 37°55' E 023°06'0 0.0
2016-Dec-02 13:33N 37°55' E 023°06'0 0.0
2016-Dec-02 12:33N 37°55' E 023°06'0 0.0
2016-Dec-02 11:31N 37°55' E 023°06'1 0.2
2016-Dec-02 07:33N 37°54' E 023°07'8 8.2
2016-Dec-02 06:33N 37°52' E 023°17'8 8.3
2016-Dec-02 05:33N 37°50' E 023°27'9 9.3
2016-Dec-02 04:33N 37°48' E 023°39'9 9.4
2016-Dec-02 03:33N 37°40' E 023°45'8 8.4
2016-Dec-02 02:33N 37°37' E 023°55'9 8.5
2016-Dec-02 01:33N 37°37' E 024°06'9 9.3
2016-Dec-02 00:33N 37°42' E 024°15'10 9.9
2016-Dec-01 23:33N 37°49' E 024°25'10 9.6
2016-Dec-01 22:33N 37°55' E 024°34'  
2016-Nov-28 10:31N 40°19' E 022°48'11 9.5
2016-Nov-28 09:22N 40°30' E 022°46'8 9.9
2016-Nov-28 08:33N 40°35' E 022°54'3 2.7
2016-Nov-28 07:31N 40°38' E 022°53'0 0.0
2016-Nov-28 06:34N 40°38' E 022°53'0 0.0
2016-Nov-28 05:31N 40°38' E 022°53'0 0.0
2016-Nov-28 04:34N 40°38' E 022°53'0 0.0
2016-Nov-28 03:33N 40°38' E 022°53'0 0.0
2016-Nov-28 02:30N 40°38' E 022°53'0 0.0
2016-Nov-28 01:33N 40°38' E 022°53'0 0.0
2016-Nov-28 00:25N 40°38' E 022°53'0 0.0
2016-Nov-27 23:25N 40°38' E 022°53'0 0.0
2016-Nov-27 22:25N 40°38' E 022°53'0 0.0
2016-Nov-27 21:27N 40°38' E 022°53'0 0.0
2016-Nov-27 20:28N 40°38' E 022°53'0 0.0
2016-Nov-27 19:31N 40°38' E 022°53'0 0.0
2016-Nov-27 18:30N 40°38' E 022°53'0 0.0
2016-Nov-27 17:31N 40°38' E 022°53'0 0.0
2016-Nov-27 16:34N 40°38' E 022°53'0 0.0
2016-Nov-27 15:33N 40°38' E 022°53'0 0.0
2016-Nov-27 14:33N 40°38' E 022°53'0 0.0
2016-Nov-27 13:33N 40°38' E 022°53'0 0.0
2016-Nov-27 12:33N 40°38' E 022°53'0 0.0
2016-Nov-27 11:33N 40°38' E 022°53'0 0.0
2016-Nov-27 10:33N 40°38' E 022°53'3 2.3
2016-Nov-27 09:25N 40°36' E 022°56'0 0.0
2016-Nov-27 08:28N 40°36' E 022°56'0 0.0
2016-Nov-27 07:31N 40°36' E 022°56'0 0.0
2016-Nov-27 06:31N 40°36' E 022°56'0 0.0
2016-Nov-27 05:31N 40°36' E 022°56'0 0.0
2016-Nov-27 04:31N 40°36' E 022°56'0 0.0
2016-Nov-27 03:33N 40°36' E 022°56'6 6.3
2016-Nov-27 02:33N 40°32' E 022°50'174 7.8
2016-Nov-26 04:15N 37°59' E 024°36'7 8.2
2016-Nov-26 03:26N 37°53' E 024°31'7 8.4
2016-Nov-26 02:33N 37°48' E 024°24'8 8.4
2016-Nov-26 01:33N 37°43' E 024°16'9 8.5
2016-Nov-26 00:31N 37°37' E 024°08'12 8.6
2016-Nov-25 23:08N 37°38' E 023°53'7 8.7
2016-Nov-25 22:17N 37°39' E 023°44'6 8.1
2016-Nov-25 21:33N 37°44' E 023°40'8 7.7
2016-Nov-25 20:33N 37°49' E 023°33'9 8.6
2016-Nov-25 19:33N 37°51' E 023°22'8 8.4
2016-Nov-25 18:33N 37°53' E 023°11'5 0.2
2016-Nov-24 10:07N 37°55' E 023°05'1 1.6
2016-Nov-24 09:33N 37°54' E 023°06'0 0.2
2016-Nov-24 08:27N 37°55' E 023°06'0 0.0
2016-Nov-24 07:24N 37°54' E 023°06'0 0.0
2016-Nov-24 06:15N 37°54' E 023°06'0 0.0
2016-Nov-24 05:30N 37°54' E 023°06'0 0.0
2016-Nov-24 04:33N 37°54' E 023°06'0 0.0
2016-Nov-24 03:20N 37°54' E 023°06'0 0.0
2016-Nov-24 02:33N 37°54' E 023°06'0 0.0
2016-Nov-24 01:33N 37°54' E 023°06'0 0.0
2016-Nov-24 00:31N 37°55' E 023°06'0 0.0
2016-Nov-23 23:33N 37°54' E 023°06'0 0.0
2016-Nov-23 22:33N 37°54' E 023°06'  

Dump ship's entire track history